Flight Track Log - Related Links

Times and Time Zones

All times are in EDT time to prevent confusion due to time zone crossing. See the UCA4836 flight status page for this flight to view local times or setup timezone preferences in your user account.

Time Position Orientation Groundspeed Altitude Reporting Facility
EDT Latitude Longitude Course Direction KTS MPH feet Rate Location/Type
Sun 01:45:14 PM 40.0025 -82.9103 306° West 136 157 1,200  Level Indianapolis Center
Sun 01:45:44 PM 40.0136 -82.9306 306° West 153 176 1,900 1,175 Climbing Indianapolis Center
Sun 01:46:51 PM 40.0697 -82.9369 355° North 197 227 3,100 1,180 Climbing Indianapolis Center
Sun 01:47:46 PM 40.1175 -82.9425 355° North 191 220 4,300 1,190 Climbing Indianapolis Center
Sun 01:48:47 PM 40.1703 -82.9375 North 199 229 5,400 1,279 Climbing Indianapolis Center
Sun 01:49:48 PM 40.1953 -82.8750 62° Northeast 194 223 6,900 1,377 Climbing Indianapolis Center
Sun 01:50:49 PM 40.2164 -82.8117 66° East 187 215 8,200 1,096 Climbing Indianapolis Center
Sun 01:51:43 PM 40.2392 -82.7517 64° Northeast 195 224 9,000 522 Climbing Indianapolis Center
Sun 01:52:21 PM 40.2564 -82.7025 65° Northeast 215 247 9,000  Level Indianapolis Center
Sun 01:53:23 PM 40.2875 -82.6144 65° Northeast 259 298 9,000  Level Indianapolis Center
Sun 01:54:25 PM 40.3183 -82.5247 66° East 268 308 9,000  Level Indianapolis Center
Sun 01:55:26 PM 40.3492 -82.4344 66° East 269 310 9,000  Level Indianapolis Center
Sun 01:56:28 PM 40.3819 -82.3450 64° Northeast 270 311 9,000  Level Indianapolis Center
Sun 01:57:30 PM 40.4131 -82.2553 65° Northeast 268 308 9,000  Level Indianapolis Center
Sun 01:58:32 PM 40.4736 -82.2128 28° Northeast 267 307 9,000  Level Indianapolis Center
Sun 01:59:33 PM 40.5481 -82.2142 359° North 264 304 9,000  Level Indianapolis Center
Sun 02:00:35 PM 40.6361 -82.2069 North 268 308 9,000  Level Indianapolis Center
Sun 02:01:37 PM 40.7083 -82.1878 11° North 270 311 9,000  Level Indianapolis Center
Sun 02:02:47 PM 40.7514 -82.0878 60° Northeast 244 281 9,000  Level Cleveland Center
Sun 02:03:38 PM 40.7814 -82.0172 61° Northeast 275 316 9,000  Level Cleveland Center
Sun 02:04:26 PM 40.8094 -81.9492 61° Northeast 271 312 9,000  Level Cleveland Center
Sun 02:05:09 PM 40.8372 -81.8894 58° Northeast 273 314 9,000  Level Cleveland Center
Sun 02:05:47 PM 40.8567 -81.8322 66° East 262 302 9,000  Level Cleveland Center
Sun 02:06:22 PM 40.8800 -81.7806 59° Northeast 271 312 9,000 -202 Level Cleveland Center
Sun 02:07:16 PM 40.9144 -81.6958 62° Northeast 274 315 8,700 -494 Descending Cleveland Center
Sun 02:07:47 PM 40.9333 -81.6578 57° Northeast 267 307 8,300 -462 Descending Cleveland Center
Sun 02:08:47 PM 41.0106 -81.6508 North 248 285 8,000 -200 Descending Cleveland Center
Sun 02:09:47 PM 41.0833 -81.6683 350° North 248 285 7,900 -500 Descending Cleveland Center
Sun 02:10:47 PM 41.1625 -81.6781 355° North 275 316 7,000 -450 Descending Cleveland Center
Sun 02:11:47 PM 41.2353 -81.7097 342° North 275 316 7,000  Level Cleveland Center
Sun 02:12:47 PM 41.3078 -81.7578 334° Northwest 270 311 7,000 -403 Level Cleveland Center
Sun 02:14:16 PM 41.3808 -81.7425 North 216 249 6,000 -400 Descending Cleveland Center
Sun 02:15:17 PM 41.4231 -81.6853 45° Northeast 203 234 6,000 -99 Level Cleveland Center
Sun 02:16:17 PM 41.4611 -81.6306 47° Northeast 203 234 5,800 -496 Descending Cleveland Center
Sun 02:17:18 PM 41.5011 -81.5756 46° Northeast 215 247 5,000 -787 Descending Cleveland Center
Sun 02:18:19 PM 41.5511 -81.5931 345° North 194 223 4,200 -492 Descending Cleveland Center
Sun 02:19:20 PM 41.5400 -81.6539 256° West 167 192 4,000 -365 Descending Cleveland Center
Sun 02:20:14 PM 41.5106 -81.6978 228° Southwest 180 207 3,500 -556 Descending Cleveland Center

Login

Don't have an account? Register now (free) for customized features, flight alerts, and more!